AirNav   TITAN Aviation Fuels
 
 1582 users online  

VA61 Lovettsville Vintage Aerodrome
Lovettsville, Virginia, USA

GOING TO LOVETTSVILLE?


FAA INFORMATION EFFECTIVE 11 AUGUST 2022

Location

FAA Identifier: VA61
Lat/Long: 39-15-53.6100N 077-39-13.1100W
39-15.893500N 077-39.218500W
39.2648917,-77.6536417
(estimated)
Elevation: 529 ft. / 161.2 m (surveyed)
Variation: 09W (1985)
From city: 1 mile SW of LOVETTSVILLE, VA
Time zone: UTC -4 (UTC -5 during Standard Time)
Zip code: 20180

Airport Operations

Airport use: Private use. Permission required prior to landing
Activation date: 11/1970
Control tower: no
ARTCC: WASHINGTON CENTER
FSS: LEESBURG FLIGHT SERVICE STATION
Attendance: IREG
Wind indicator: yes
Segmented circle: no

Airport Communications

WX AWOS-3 at JYO (12 nm S): 125.225 (703-777-3781)
WX AWOS-3 at FDK (16 nm NE): PHONE 301-600-1457
WX ASOS at MRB (17 nm NW): 119.925 (304-264-0988)

Nearby radio navigation aids

VOR radial/distance  VOR name  Freq  Var
MRBr136/11.6MARTINSBURG VORTAC112.1007W
FDKr244/(15.7)FREDERICK VOR109.0008W
AMLr344/21.6ARMEL VOR/DME113.5008W
HGRr167/(27.6)HAGERSTOWN VOR109.8007W
EMIr254/34.2WESTMINSTER VORTAC117.9008W
LDNr052/35.6LINDEN VORTAC114.3006W
DCAr319/37.7WASHINGTON VOR/DME111.0009W
CSNr021/38.7CASANOVA VORTAC116.3006W

 
NDB name  Hdg/Dist  Freq  Var  ID
GEORGETOWN318/31.832309WGTN --. - -.

Airport Services

Airframe service: MINOR
Powerplant service: MINOR

Runway Information

Runway 1/19

Dimensions: 3000 x 50 ft. / 914 x 15 m
Surface: turf
RUNWAY 1  RUNWAY 19
Traffic pattern: leftright

Airport Ownership and Management from official FAA records

Ownership: Privately-owned
Owner: THOMAS C. POMEROY
12582 LUTHERAN CHURCH ROAD
LOVETTSVILLE, VA 20180
Phone 571-919-7800
Manager: THOMAS C. POMEROY
12582 LUTHERAN CHURCH ROAD
LOVETTSVILLE, VA 20180
Phone (571) 919-7800

Airport Operational Statistics

Aircraft based on the field: 4
Single engine airplanes: 4
    

Additional Remarks

DEER AND GEESE INVOF OF ARPT.
CALL DURING WINTER AND EARLY SPRING OR AFTER HEAVY RAIN TO CONFIRM RWY CONDITION.
COLOCATED AEROBATIC PRACTICE AREA - CHECK NOTAMS FOR DAYS & HOURS OF USE.

Instrument Procedures

There are no published instrument procedures at VA61.

Some nearby airports with instrument procedures:

KJYO - Leesburg Executive Airport (12 nm S)
KFDK - Frederick Municipal Airport (16 nm NE)
9VA5 - Bluegrass Heliport (16 nm SW)
KMRB - Eastern WV Regional Airport/Shepherd Field (17 nm NW)
2VG2 - Upperville Airport (20 nm SW)
 
Loc | Ops | Rwys | IFR | FBO | Links
Com | Nav | Svcs | Stats | Notes
Area around VA61 (Lovettsville Vintage Aerodrome)
 
Road maps at: MapQuest Bing Google
 
Aerial photo
WARNING: Photo may not be current or correct
Aerial photo of VA61 (Lovettsville Vintage Aerodrome)
Photo taken 24-Aug-2014
looking north.

Do you have a better or more recent aerial photo of Lovettsville Vintage Aerodrome that you would like to share? If so, please send us your photo.

 
Sectional chart

 
Airport distance calculator
Flying to Lovettsville Vintage Aerodrome? Find the distance to fly.

From to VA61

Sunrise and sunset
Times for 11-Aug-2022
 Local
(UTC-4)
 Zulu
(UTC)
Morning civil twilight05:5209:52
Sunrise06:2110:21
Sunset20:1100:11
Evening civil twilight20:4000:40

Current date and time
Zulu (UTC)  11-Aug-2022 20:25:58
Local (UTC-4)  11-Aug-2022 16:25:58
 
METAR
KJYO 
13nm S 
111955Z AUTO 01009G15KT 10SM CLR 29/17 A2996 RMK AO2
KFDK 
16nm NE 
111947Z 01008G15KT 10SM CLR 31/16 A2994
KMRB 
17nm NW 
111953Z 32008KT 10SM CLR 28/16 A2995 RMK AO2 SLP137 T02830161
KIAD 
22nm SE 
111952Z 30009G18KT 10SM FEW035 FEW120 29/16 A2995 RMK AO2 SLP137 T02940156
KGAI 
23nm E 
111956Z AUTO CLR 29/17 A2996 RMK AO2 SLP152 T02890167 PWINO $
KOKV 
24nm W 
111955Z AUTO 34005KT 10SM CLR 27/15 A2996 RMK AO2
TAF
KMRB 
17nm NW 
111721Z 1118/1218 29008KT P6SM FEW250 FM120200 32004KT P6SM BKN150 FM120800 34004KT P6SM SCT080 FM121500 36007KT P6SM FEW250
NOTAMs
Click for the latest NOTAMs
NOTAMs are issued by the DoD/FAA and will open in a separate window not controlled by AirNav.

 

 
 

Would you like to see your business listed on this page?

 If your business provides an interesting product or service to pilots, flight crews, aircraft, or users of the Lovettsville Vintage Aerodrome, you should consider listing it here.  To start the listing process, click on the button below
 
Add a business
 

Other Pages about Lovettsville Vintage Aerodrome

Update a link
 
Copyright © AirNav, LLC. All rights reserved. Privacy Policy  Contact